sensor_id;sensor_type;location;lat;lon;timestamp;pressure;altitude;pressure_sealevel;temperature;humidity
66196;BME280;53000;45.182;5.736;2023-07-31T00:01:31;99445.28;;;24.16;39.37
66196;BME280;53000;45.182;5.736;2023-07-31T00:03:56;99445.25;;;24.11;40.60
66196;BME280;53000;45.182;5.736;2023-07-31T00:06:22;99440.91;;;23.98;40.83
66196;BME280;53000;45.182;5.736;2023-07-31T00:08:47;99442.50;;;23.94;40.63
66196;BME280;53000;45.182;5.736;2023-07-31T00:11:12;99431.44;;;23.77;42.03
66196;BME280;53000;45.182;5.736;2023-07-31T00:13:38;99434.00;;;23.67;41.20
66196;BME280;53000;45.182;5.736;2023-07-31T00:16:03;99430.66;;;23.65;41.42
66196;BME280;53000;45.182;5.736;2023-07-31T00:18:28;99424.81;;;23.61;41.25
66196;BME280;53000;45.182;5.736;2023-07-31T00:20:54;99427.59;;;23.61;40.99
66196;BME280;53000;45.182;5.736;2023-07-31T00:23:19;99416.44;;;23.56;41.52
66196;BME280;53000;45.182;5.736;2023-07-31T00:25:44;99415.84;;;23.54;41.61
66196;BME280;53000;45.182;5.736;2023-07-31T00:28:10;99412.25;;;23.54;41.88
66196;BME280;53000;45.182;5.736;2023-07-31T00:30:35;99405.81;;;23.48;41.87
66196;BME280;53000;45.182;5.736;2023-07-31T00:33:00;99398.03;;;23.45;41.79
66196;BME280;53000;45.182;5.736;2023-07-31T00:35:26;99389.06;;;23.38;41.89
66196;BME280;53000;45.182;5.736;2023-07-31T00:37:51;99404.53;;;23.39;42.08
66196;BME280;53000;45.182;5.736;2023-07-31T00:40:16;99391.72;;;23.33;41.68
66196;BME280;53000;45.182;5.736;2023-07-31T00:42:41;99400.59;;;23.35;42.57
66196;BME280;53000;45.182;5.736;2023-07-31T00:45:07;99387.97;;;23.22;42.39
66196;BME280;53000;45.182;5.736;2023-07-31T00:47:33;99403.94;;;23.20;42.13
66196;BME280;53000;45.182;5.736;2023-07-31T00:49:58;99396.09;;;23.12;42.61
66196;BME280;53000;45.182;5.736;2023-07-31T00:52:24;99396.31;;;23.10;42.32
66196;BME280;53000;45.182;5.736;2023-07-31T00:54:49;99400.75;;;23.11;42.89
66196;BME280;53000;45.182;5.736;2023-07-31T00:57:15;99402.19;;;23.14;42.67
66196;BME280;53000;45.182;5.736;2023-07-31T00:59:40;99401.59;;;23.12;42.98
66196;BME280;53000;45.182;5.736;2023-07-31T01:02:06;99407.03;;;23.06;42.79
66196;BME280;53000;45.182;5.736;2023-07-31T01:04:31;99393.97;;;23.02;42.67
66196;BME280;53000;45.182;5.736;2023-07-31T01:07:13;99396.72;;;23.02;42.43
66196;BME280;53000;45.182;5.736;2023-07-31T01:09:46;99397.56;;;23.02;42.54
66196;BME280;53000;45.182;5.736;2023-07-31T01:12:15;99410.53;;;23.02;42.63
66196;BME280;53000;45.182;5.736;2023-07-31T01:15:05;99403.34;;;23.01;42.28
66196;BME280;53000;45.182;5.736;2023-07-31T01:17:30;99404.38;;;23.00;42.84
66196;BME280;53000;45.182;5.736;2023-07-31T01:19:59;99403.44;;;22.94;42.86
66196;BME280;53000;45.182;5.736;2023-07-31T01:28:05;99408.22;;;22.82;42.86
66196;BME280;53000;45.182;5.736;2023-07-31T01:30:34;99406.50;;;22.81;43.44
66196;BME280;53000;45.182;5.736;2023-07-31T01:33:03;99402.34;;;22.78;42.95
66196;BME280;53000;45.182;5.736;2023-07-31T01:35:36;99403.66;;;22.76;43.22
66196;BME280;53000;45.182;5.736;2023-07-31T01:38:02;99405.47;;;22.70;43.43
66196;BME280;53000;45.182;5.736;2023-07-31T01:40:28;99394.59;;;22.63;42.97
66196;BME280;53000;45.182;5.736;2023-07-31T01:42:53;99403.97;;;22.62;43.46
66196;BME280;53000;45.182;5.736;2023-07-31T01:45:19;99402.28;;;22.61;43.37
66196;BME280;53000;45.182;5.736;2023-07-31T01:47:45;99400.84;;;22.59;43.62
66196;BME280;53000;45.182;5.736;2023-07-31T01:50:10;99393.78;;;22.51;44.17
66196;BME280;53000;45.182;5.736;2023-07-31T01:52:35;99403.16;;;22.50;44.38
66196;BME280;53000;45.182;5.736;2023-07-31T01:55:01;99411.19;;;22.52;44.35
66196;BME280;53000;45.182;5.736;2023-07-31T01:57:26;99408.09;;;22.48;44.92
66196;BME280;53000;45.182;5.736;2023-07-31T01:59:52;99401.72;;;22.48;44.16
66196;BME280;53000;45.182;5.736;2023-07-31T02:02:19;99395.03;;;22.43;44.26
66196;BME280;53000;45.182;5.736;2023-07-31T02:04:44;99392.75;;;22.40;44.83
66196;BME280;53000;45.182;5.736;2023-07-31T02:07:10;99399.59;;;22.38;44.33
66196;BME280;53000;45.182;5.736;2023-07-31T02:09:35;99400.69;;;22.37;45.24
66196;BME280;53000;45.182;5.736;2023-07-31T02:12:00;99394.72;;;22.28;44.72
66196;BME280;53000;45.182;5.736;2023-07-31T02:14:26;99398.16;;;22.23;44.54
66196;BME280;53000;45.182;5.736;2023-07-31T02:16:51;99405.38;;;22.24;44.66
66196;BME280;53000;45.182;5.736;2023-07-31T02:19:16;99402.03;;;22.22;45.33
66196;BME280;53000;45.182;5.736;2023-07-31T02:21:42;99396.03;;;22.14;45.09
66196;BME280;53000;45.182;5.736;2023-07-31T02:24:07;99397.09;;;22.13;45.27
66196;BME280;53000;45.182;5.736;2023-07-31T02:26:32;99399.75;;;22.08;45.62
66196;BME280;53000;45.182;5.736;2023-07-31T02:28:58;99397.72;;;22.03;45.51
66196;BME280;53000;45.182;5.736;2023-07-31T02:31:23;99393.53;;;22.00;45.20
66196;BME280;53000;45.182;5.736;2023-07-31T02:33:48;99392.94;;;21.98;45.02
66196;BME280;53000;45.182;5.736;2023-07-31T02:36:14;99394.00;;;21.97;45.40
66196;BME280;53000;45.182;5.736;2023-07-31T02:38:39;99383.69;;;21.93;45.09
66196;BME280;53000;45.182;5.736;2023-07-31T02:41:05;99388.38;;;21.92;45.48
66196;BME280;53000;45.182;5.736;2023-07-31T02:43:30;99399.41;;;21.92;45.27
66196;BME280;53000;45.182;5.736;2023-07-31T02:45:55;99382.41;;;21.83;45.59
66196;BME280;53000;45.182;5.736;2023-07-31T02:48:21;99403.81;;;21.93;45.73
66196;BME280;53000;45.182;5.736;2023-07-31T02:50:47;99395.22;;;21.90;45.47
66196;BME280;53000;45.182;5.736;2023-07-31T02:53:13;99396.03;;;21.90;45.20
66196;BME280;53000;45.182;5.736;2023-07-31T02:55:38;99397.13;;;21.89;45.56
66196;BME280;53000;45.182;5.736;2023-07-31T02:58:04;99389.56;;;21.84;45.53
66196;BME280;53000;45.182;5.736;2023-07-31T03:00:29;99393.16;;;21.85;45.52
66196;BME280;53000;45.182;5.736;2023-07-31T03:02:55;99398.34;;;21.81;45.79
66196;BME280;53000;45.182;5.736;2023-07-31T03:05:20;99383.13;;;21.79;45.50
66196;BME280;53000;45.182;5.736;2023-07-31T03:07:45;99377.34;;;21.80;45.66
66196;BME280;53000;45.182;5.736;2023-07-31T03:10:11;99389.56;;;21.84;44.99
66196;BME280;53000;45.182;5.736;2023-07-31T03:12:36;99388.97;;;21.82;46.47
66196;BME280;53000;45.182;5.736;2023-07-31T03:15:02;99385.75;;;21.74;45.66
66196;BME280;53000;45.182;5.736;2023-07-31T03:17:27;99393.31;;;21.67;46.67
66196;BME280;53000;45.182;5.736;2023-07-31T03:19:52;99392.22;;;21.56;45.92
66196;BME280;53000;45.182;5.736;2023-07-31T03:22:18;99397.69;;;21.44;46.96
66196;BME280;53000;45.182;5.736;2023-07-31T03:24:43;99401.53;;;21.43;46.32
66196;BME280;53000;45.182;5.736;2023-07-31T03:27:08;99400.44;;;21.44;46.52
66196;BME280;53000;45.182;5.736;2023-07-31T03:29:33;99401.13;;;21.39;47.40
66196;BME280;53000;45.182;5.736;2023-07-31T03:31:59;99405.22;;;21.37;47.41
66196;BME280;53000;45.182;5.736;2023-07-31T03:34:24;99409.41;;;21.28;47.18
66196;BME280;53000;45.182;5.736;2023-07-31T03:36:50;99408.78;;;21.26;46.40
66196;BME280;53000;45.182;5.736;2023-07-31T03:39:15;99399.31;;;21.21;46.96
66196;BME280;53000;45.182;5.736;2023-07-31T03:41:40;99401.56;;;21.13;47.45
66196;BME280;53000;45.182;5.736;2023-07-31T03:44:06;99396.84;;;21.01;48.32
66196;BME280;53000;45.182;5.736;2023-07-31T03:46:31;99412.41;;;20.96;49.29
66196;BME280;53000;45.182;5.736;2023-07-31T03:48:56;99401.13;;;20.86;48.59
66196;BME280;53000;45.182;5.736;2023-07-31T03:51:22;99415.97;;;20.85;47.92
66196;BME280;53000;45.182;5.736;2023-07-31T03:53:47;99404.59;;;20.81;48.65
66196;BME280;53000;45.182;5.736;2023-07-31T03:56:13;99418.94;;;20.83;48.69
66196;BME280;53000;45.182;5.736;2023-07-31T03:58:38;99425.66;;;20.87;48.62
66196;BME280;53000;45.182;5.736;2023-07-31T04:01:04;99426.50;;;20.88;48.58
66196;BME280;53000;45.182;5.736;2023-07-31T04:03:30;99429.25;;;20.88;48.19
66196;BME280;53000;45.182;5.736;2023-07-31T04:05:55;99427.94;;;20.90;48.15
66196;BME280;53000;45.182;5.736;2023-07-31T04:08:23;99424.34;;;20.90;48.12
66196;BME280;53000;45.182;5.736;2023-07-31T04:10:49;99421.72;;;20.95;48.48
66196;BME280;53000;45.182;5.736;2023-07-31T04:13:15;99427.59;;;20.98;48.51
66196;BME280;53000;45.182;5.736;2023-07-31T04:15:40;99427.84;;;20.97;48.20
66196;BME280;53000;45.182;5.736;2023-07-31T04:18:06;99436.25;;;21.02;48.20
66196;BME280;53000;45.182;5.736;2023-07-31T04:20:31;99426.69;;;21.04;48.48
66196;BME280;53000;45.182;5.736;2023-07-31T04:22:56;99414.13;;;21.09;47.79
66196;BME280;53000;45.182;5.736;2023-07-31T04:25:22;99418.09;;;21.13;48.19
66196;BME280;53000;45.182;5.736;2023-07-31T04:27:47;99415.94;;;21.15;48.06
66196;BME280;53000;45.182;5.736;2023-07-31T04:30:13;99427.78;;;21.15;47.98
66196;BME280;53000;45.182;5.736;2023-07-31T04:32:38;99429.00;;;21.19;47.92
66196;BME280;53000;45.182;5.736;2023-07-31T04:35:04;99428.78;;;21.21;47.64
66196;BME280;53000;45.182;5.736;2023-07-31T04:37:29;99429.00;;;21.19;47.82
66196;BME280;53000;45.182;5.736;2023-07-31T04:39:54;99439.78;;;21.21;47.82
66196;BME280;53000;45.182;5.736;2023-07-31T04:42:20;99434.72;;;21.18;48.16
66196;BME280;53000;45.182;5.736;2023-07-31T04:44:45;99433.16;;;21.10;47.97
66196;BME280;53000;45.182;5.736;2023-07-31T04:47:11;99433.16;;;21.10;48.36
66196;BME280;53000;45.182;5.736;2023-07-31T04:49:36;99438.69;;;21.10;48.64
66196;BME280;53000;45.182;5.736;2023-07-31T04:52:01;99439.13;;;21.07;48.50
66196;BME280;53000;45.182;5.736;2023-07-31T04:54:27;99444.84;;;21.06;48.26
66196;BME280;53000;45.182;5.736;2023-07-31T04:56:52;99451.22;;;21.06;48.91
66196;BME280;53000;45.182;5.736;2023-07-31T04:59:18;99453.59;;;21.02;48.16
66196;BME280;53000;45.182;5.736;2023-07-31T05:01:43;99456.56;;;21.01;48.36
66196;BME280;53000;45.182;5.736;2023-07-31T05:04:12;99460.84;;;20.97;49.25
66196;BME280;53000;45.182;5.736;2023-07-31T05:06:37;99461.34;;;20.94;49.17
66196;BME280;53000;45.182;5.736;2023-07-31T05:09:03;99449.50;;;20.93;49.01
66196;BME280;53000;45.182;5.736;2023-07-31T05:11:28;99445.88;;;20.93;49.34
66196;BME280;53000;45.182;5.736;2023-07-31T05:13:53;99457.19;;;21.03;49.34
66196;BME280;53000;45.182;5.736;2023-07-31T05:16:19;99451.31;;;20.99;49.24
66196;BME280;53000;45.182;5.736;2023-07-31T05:18:44;99452.75;;;21.02;49.13
66196;BME280;53000;45.182;5.736;2023-07-31T05:21:09;99436.56;;;20.94;48.97
66196;BME280;53000;45.182;5.736;2023-07-31T05:23:34;99445.13;;;21.04;49.29
66196;BME280;53000;45.182;5.736;2023-07-31T05:26:04;99426.41;;;20.94;49.23
66196;BME280;53000;45.182;5.736;2023-07-31T05:28:30;99441.88;;;21.07;49.93
66196;BME280;53000;45.182;5.736;2023-07-31T05:31:04;99439.25;;;21.12;49.58
66196;BME280;53000;45.182;5.736;2023-07-31T05:33:30;99452.34;;;21.17;50.33
66196;BME280;53000;45.182;5.736;2023-07-31T05:35:56;99442.75;;;21.19;49.90
66196;BME280;53000;45.182;5.736;2023-07-31T05:38:21;99440.25;;;21.18;49.88
66196;BME280;53000;45.182;5.736;2023-07-31T05:40:47;99443.59;;;21.20;49.48
66196;BME280;53000;45.182;5.736;2023-07-31T05:43:12;99441.44;;;21.22;49.68
66196;BME280;53000;45.182;5.736;2023-07-31T05:45:38;99454.88;;;21.30;49.23
66196;BME280;53000;45.182;5.736;2023-07-31T05:48:03;99452.25;;;21.35;49.87
66196;BME280;53000;45.182;5.736;2023-07-31T05:50:30;99437.41;;;21.36;49.13
66196;BME280;53000;45.182;5.736;2023-07-31T05:52:55;99452.84;;;21.37;48.83
66196;BME280;53000;45.182;5.736;2023-07-31T05:55:21;99453.06;;;21.36;49.41
66196;BME280;53000;45.182;5.736;2023-07-31T05:57:46;99450.91;;;21.26;49.23
66196;BME280;53000;45.182;5.736;2023-07-31T06:00:13;99437.25;;;21.19;49.82
66196;BME280;53000;45.182;5.736;2023-07-31T06:02:38;99426.81;;;21.10;49.34
66196;BME280;53000;45.182;5.736;2023-07-31T06:05:05;99445.25;;;21.09;49.20
66196;BME280;53000;45.182;5.736;2023-07-31T06:07:34;99432.88;;;21.00;49.42
66196;BME280;53000;45.182;5.736;2023-07-31T06:09:59;99429.88;;;21.01;49.28
66196;BME280;53000;45.182;5.736;2023-07-31T06:12:29;99429.66;;;21.03;49.14
66196;BME280;53000;45.182;5.736;2023-07-31T06:14:55;99424.97;;;21.03;49.97
66196;BME280;53000;45.182;5.736;2023-07-31T06:17:20;99424.16;;;21.03;49.63
66196;BME280;53000;45.182;5.736;2023-07-31T06:19:46;99427.91;;;21.09;49.66
66196;BME280;53000;45.182;5.736;2023-07-31T06:22:12;99411.22;;;21.03;49.61
66196;BME280;53000;45.182;5.736;2023-07-31T06:24:37;99423.13;;;21.16;49.09
66196;BME280;53000;45.182;5.736;2023-07-31T06:27:02;99418.81;;;21.20;49.26
66196;BME280;53000;45.182;5.736;2023-07-31T06:29:29;99423.63;;;21.24;49.63
66196;BME280;53000;45.182;5.736;2023-07-31T06:31:54;99437.88;;;21.33;49.87
66196;BME280;53000;45.182;5.736;2023-07-31T06:34:20;99426.63;;;21.35;49.45
66196;BME280;53000;45.182;5.736;2023-07-31T06:36:45;99416.00;;;21.38;49.50
66196;BME280;53000;45.182;5.736;2023-07-31T06:39:10;99409.56;;;21.44;48.91
66196;BME280;53000;45.182;5.736;2023-07-31T06:41:36;99412.44;;;21.50;49.02
66196;BME280;53000;45.182;5.736;2023-07-31T06:44:01;99403.69;;;21.53;49.06
66196;BME280;53000;45.182;5.736;2023-07-31T06:46:26;99414.59;;;21.59;48.53
66196;BME280;53000;45.182;5.736;2023-07-31T06:48:52;99416.28;;;21.60;48.00
66196;BME280;53000;45.182;5.736;2023-07-31T06:51:17;99415.47;;;21.60;47.84
66196;BME280;53000;45.182;5.736;2023-07-31T06:53:42;99422.41;;;21.62;47.73
66196;BME280;53000;45.182;5.736;2023-07-31T06:56:10;99416.41;;;21.65;47.96
66196;BME280;53000;45.182;5.736;2023-07-31T06:58:35;99411.97;;;21.64;47.96
66196;BME280;53000;45.182;5.736;2023-07-31T07:01:04;99396.50;;;21.63;48.22
66196;BME280;53000;45.182;5.736;2023-07-31T07:03:29;99399.41;;;21.69;47.81
66196;BME280;53000;45.182;5.736;2023-07-31T07:05:55;99391.03;;;21.75;47.70
66196;BME280;53000;45.182;5.736;2023-07-31T07:08:20;99394.38;;;21.77;48.39
66196;BME280;53000;45.182;5.736;2023-07-31T07:10:46;99386.22;;;21.71;48.19
66196;BME280;53000;45.182;5.736;2023-07-31T07:13:11;99388.03;;;21.77;48.34
66196;BME280;53000;45.182;5.736;2023-07-31T07:15:37;99377.25;;;21.75;48.31
66196;BME280;53000;45.182;5.736;2023-07-31T07:18:03;99381.31;;;21.84;47.66
66196;BME280;53000;45.182;5.736;2023-07-31T07:20:28;99366.47;;;21.85;47.74
66196;BME280;53000;45.182;5.736;2023-07-31T07:22:54;99393.88;;;22.04;47.52
66196;BME280;53000;45.182;5.736;2023-07-31T07:25:19;99387.16;;;22.12;47.73
66196;BME280;53000;45.182;5.736;2023-07-31T07:27:45;99390.50;;;22.25;47.40
66196;BME280;53000;45.182;5.736;2023-07-31T07:30:10;99395.31;;;22.30;47.39
66196;BME280;53000;45.182;5.736;2023-07-31T07:32:36;99384.13;;;22.37;46.74
66196;BME280;53000;45.182;5.736;2023-07-31T07:35:01;99375.72;;;22.43;46.45
66196;BME280;53000;45.182;5.736;2023-07-31T07:37:27;99377.09;;;22.58;46.32
66196;BME280;53000;45.182;5.736;2023-07-31T07:39:52;99394.59;;;22.63;45.83
66196;BME280;53000;45.182;5.736;2023-07-31T07:42:18;99390.84;;;22.70;46.29
66196;BME280;53000;45.182;5.736;2023-07-31T07:44:44;99380.44;;;23.51;45.19
66196;BME280;53000;45.182;5.736;2023-07-31T07:47:09;99388.53;;;25.66;42.75
66196;BME280;53000;45.182;5.736;2023-07-31T07:49:35;99391.44;;;28.16;36.41
66196;BME280;53000;45.182;5.736;2023-07-31T07:52:01;99396.47;;;30.21;37.49
66196;BME280;53000;45.182;5.736;2023-07-31T07:54:26;99384.13;;;32.12;34.09
66196;BME280;53000;45.182;5.736;2023-07-31T07:56:52;99381.44;;;33.80;32.54
66196;BME280;53000;45.182;5.736;2023-07-31T07:59:17;99383.88;;;35.28;30.91
66196;BME280;53000;45.182;5.736;2023-07-31T08:01:43;99379.72;;;36.54;28.69
66196;BME280;53000;45.182;5.736;2023-07-31T08:04:08;99381.75;;;37.80;26.87
66196;BME280;53000;45.182;5.736;2023-07-31T08:06:33;99374.28;;;38.45;24.56
66196;BME280;53000;45.182;5.736;2023-07-31T08:08:59;99376.81;;;38.59;24.17
66196;BME280;53000;45.182;5.736;2023-07-31T08:11:24;99371.47;;;38.82;23.58
66196;BME280;53000;45.182;5.736;2023-07-31T08:13:50;99371.50;;;39.23;23.35
66196;BME280;53000;45.182;5.736;2023-07-31T08:16:15;99370.13;;;39.45;22.34
66196;BME280;53000;45.182;5.736;2023-07-31T08:18:41;99362.75;;;39.56;19.80
66196;BME280;53000;45.182;5.736;2023-07-31T08:21:08;99368.84;;;39.86;22.59
66196;BME280;53000;45.182;5.736;2023-07-31T08:23:33;99367.78;;;40.39;22.19
66196;BME280;53000;45.182;5.736;2023-07-31T08:25:59;99372.72;;;40.93;21.04
66196;BME280;53000;45.182;5.736;2023-07-31T08:28:25;99371.63;;;41.37;19.59
66196;BME280;53000;45.182;5.736;2023-07-31T08:30:50;99369.97;;;41.75;20.22
66196;BME280;53000;45.182;5.736;2023-07-31T08:33:18;99371.13;;;41.93;20.35
66196;BME280;53000;45.182;5.736;2023-07-31T08:35:43;99365.06;;;42.18;20.07
66196;BME280;53000;45.182;5.736;2023-07-31T08:38:09;99353.81;;;42.25;19.74
66196;BME280;53000;45.182;5.736;2023-07-31T08:40:37;99362.09;;;42.34;19.15
66196;BME280;53000;45.182;5.736;2023-07-31T08:43:03;99352.09;;;42.43;19.73
66196;BME280;53000;45.182;5.736;2023-07-31T08:45:29;99356.19;;;42.46;18.17
66196;BME280;53000;45.182;5.736;2023-07-31T08:47:56;99362.94;;;41.68;18.83
66196;BME280;53000;45.182;5.736;2023-07-31T08:50:22;99354.75;;;41.44;18.82
66196;BME280;53000;45.182;5.736;2023-07-31T08:52:50;99342.13;;;41.22;19.19
66196;BME280;53000;45.182;5.736;2023-07-31T08:55:16;99356.47;;;41.48;19.28
66196;BME280;53000;45.182;5.736;2023-07-31T08:57:42;99350.69;;;41.45;18.19
66196;BME280;53000;45.182;5.736;2023-07-31T09:00:10;99347.13;;;41.28;18.57
66196;BME280;53000;45.182;5.736;2023-07-31T09:03:03;99345.94;;;40.75;18.33
66196;BME280;53000;45.182;5.736;2023-07-31T09:05:30;99334.94;;;40.38;18.57
66196;BME280;53000;45.182;5.736;2023-07-31T09:07:57;99331.72;;;40.39;18.03
66196;BME280;53000;45.182;5.736;2023-07-31T09:10:23;99322.91;;;39.65;17.87
66196;BME280;53000;45.182;5.736;2023-07-31T09:12:51;99321.44;;;38.99;19.60
66196;BME280;53000;45.182;5.736;2023-07-31T09:15:16;99319.81;;;38.85;20.10
66196;BME280;53000;45.182;5.736;2023-07-31T09:17:45;99315.97;;;38.65;18.96
66196;BME280;53000;45.182;5.736;2023-07-31T09:20:17;99311.72;;;38.35;19.25
66196;BME280;53000;45.182;5.736;2023-07-31T09:22:44;99311.13;;;37.80;19.95
66196;BME280;53000;45.182;5.736;2023-07-31T09:30:20;99292.41;;;36.07;21.39
66196;BME280;53000;45.182;5.736;2023-07-31T09:32:47;99300.31;;;35.84;21.05
66196;BME280;53000;45.182;5.736;2023-07-31T09:35:14;99301.19;;;35.67;21.59
66196;BME280;53000;45.182;5.736;2023-07-31T09:37:43;99294.25;;;35.65;22.45
66196;BME280;53000;45.182;5.736;2023-07-31T09:40:09;99287.97;;;35.68;21.73
66196;BME280;53000;45.182;5.736;2023-07-31T09:42:34;99290.84;;;35.33;22.24
66196;BME280;53000;45.182;5.736;2023-07-31T09:45:09;99279.97;;;35.05;22.07
66196;BME280;53000;45.182;5.736;2023-07-31T09:47:35;99281.44;;;35.02;22.38
66196;BME280;53000;45.182;5.736;2023-07-31T09:50:00;99285.25;;;35.15;22.59
66196;BME280;53000;45.182;5.736;2023-07-31T09:52:26;99276.41;;;35.43;23.11
66196;BME280;53000;45.182;5.736;2023-07-31T09:54:52;99271.44;;;35.49;22.25
66196;BME280;53000;45.182;5.736;2023-07-31T09:57:21;99278.44;;;35.34;22.50
66196;BME280;53000;45.182;5.736;2023-07-31T09:59:48;99268.84;;;35.17;22.28
66196;BME280;53000;45.182;5.736;2023-07-31T10:02:15;99258.09;;;35.19;22.71
66196;BME280;53000;45.182;5.736;2023-07-31T10:04:49;99256.13;;;35.29;22.00
66196;BME280;53000;45.182;5.736;2023-07-31T10:07:16;99250.97;;;35.31;22.20
66196;BME280;53000;45.182;5.736;2023-07-31T10:09:42;99243.84;;;35.33;21.22
66196;BME280;53000;45.182;5.736;2023-07-31T10:12:13;99244.34;;;35.35;21.74
66196;BME280;53000;45.182;5.736;2023-07-31T10:14:41;99237.19;;;35.38;21.46
66196;BME280;53000;45.182;5.736;2023-07-31T10:17:08;99236.69;;;35.45;21.09
66196;BME280;53000;45.182;5.736;2023-07-31T10:19:34;99230.03;;;35.49;22.50
66196;BME280;53000;45.182;5.736;2023-07-31T10:22:00;99239.00;;;35.42;20.77
66196;BME280;53000;45.182;5.736;2023-07-31T10:24:27;99239.69;;;35.39;22.45
66196;BME280;53000;45.182;5.736;2023-07-31T10:26:53;99218.63;;;35.46;22.00
66196;BME280;53000;45.182;5.736;2023-07-31T10:29:23;99228.88;;;35.50;22.01
66196;BME280;53000;45.182;5.736;2023-07-31T10:31:50;99214.13;;;35.53;21.21
66196;BME280;53000;45.182;5.736;2023-07-31T10:34:16;99202.56;;;35.46;21.89
66196;BME280;53000;45.182;5.736;2023-07-31T10:36:41;99196.13;;;35.37;22.22
66196;BME280;53000;45.182;5.736;2023-07-31T10:39:33;99202.84;;;35.15;21.20
66196;BME280;53000;45.182;5.736;2023-07-31T10:41:59;99192.13;;;34.82;22.08
66196;BME280;53000;45.182;5.736;2023-07-31T10:44:24;99194.28;;;34.76;22.47
66196;BME280;53000;45.182;5.736;2023-07-31T10:46:54;99193.81;;;34.66;22.18
66196;BME280;53000;45.182;5.736;2023-07-31T10:49:23;99190.97;;;34.57;22.68
66196;BME280;53000;45.182;5.736;2023-07-31T10:51:48;99188.34;;;34.43;22.68
66196;BME280;53000;45.182;5.736;2023-07-31T10:54:15;99183.69;;;34.38;23.10
66196;BME280;53000;45.182;5.736;2023-07-31T10:56:46;99182.22;;;34.24;23.17
66196;BME280;53000;45.182;5.736;2023-07-31T10:59:15;99175.38;;;34.07;23.47
66196;BME280;53000;45.182;5.736;2023-07-31T11:01:56;99172.19;;;33.83;23.18
66196;BME280;53000;45.182;5.736;2023-07-31T11:04:27;99161.69;;;33.57;23.59
66196;BME280;53000;45.182;5.736;2023-07-31T11:06:58;99165.72;;;33.33;23.60
66196;BME280;53000;45.182;5.736;2023-07-31T11:09:27;99159.19;;;33.07;23.92
66196;BME280;53000;45.182;5.736;2023-07-31T11:11:54;99166.72;;;32.75;24.23
66196;BME280;53000;45.182;5.736;2023-07-31T11:14:20;99162.16;;;32.56;24.66
66196;BME280;53000;45.182;5.736;2023-07-31T11:16:49;99147.44;;;32.37;24.63
66196;BME280;53000;45.182;5.736;2023-07-31T11:19:21;99147.88;;;32.30;24.69
66196;BME280;53000;45.182;5.736;2023-07-31T11:21:47;99149.06;;;32.29;24.67
66196;BME280;53000;45.182;5.736;2023-07-31T11:24:13;99148.75;;;32.31;24.62
66196;BME280;53000;45.182;5.736;2023-07-31T11:26:38;99124.34;;;32.31;24.89
66196;BME280;53000;45.182;5.736;2023-07-31T11:29:10;99144.22;;;32.44;25.03
66196;BME280;53000;45.182;5.736;2023-07-31T11:31:42;99131.22;;;32.48;24.95
66196;BME280;53000;45.182;5.736;2023-07-31T11:34:07;99130.16;;;32.57;24.68
66196;BME280;53000;45.182;5.736;2023-07-31T11:36:33;99123.81;;;32.66;25.41
66196;BME280;53000;45.182;5.736;2023-07-31T11:39:09;99118.72;;;32.68;24.66
66196;BME280;53000;45.182;5.736;2023-07-31T11:41:34;99113.25;;;32.71;24.62
66196;BME280;53000;45.182;5.736;2023-07-31T11:44:00;99112.44;;;32.71;25.05
66196;BME280;53000;45.182;5.736;2023-07-31T11:46:26;99096.28;;;32.68;24.56
66196;BME280;53000;45.182;5.736;2023-07-31T11:48:51;99091.13;;;32.61;25.46
66196;BME280;53000;45.182;5.736;2023-07-31T11:51:20;99094.63;;;32.67;24.68
66196;BME280;53000;45.182;5.736;2023-07-31T11:53:51;99091.50;;;32.68;25.12
66196;BME280;53000;45.182;5.736;2023-07-31T11:56:19;99079.59;;;32.63;24.94
66196;BME280;53000;45.182;5.736;2023-07-31T11:58:52;99094.78;;;32.48;24.93
66196;BME280;53000;45.182;5.736;2023-07-31T12:01:20;99083.97;;;32.32;24.88
66196;BME280;53000;45.182;5.736;2023-07-31T12:03:47;99077.88;;;32.30;24.86
66196;BME280;53000;45.182;5.736;2023-07-31T12:06:13;99068.19;;;32.36;24.63
66196;BME280;53000;45.182;5.736;2023-07-31T12:08:39;99065.41;;;32.36;25.16
66196;BME280;53000;45.182;5.736;2023-07-31T12:11:08;99059.78;;;32.36;25.25
66196;BME280;53000;45.182;5.736;2023-07-31T12:13:38;99059.59;;;32.33;25.30
66196;BME280;53000;45.182;5.736;2023-07-31T12:16:04;99062.03;;;32.48;25.40
66196;BME280;53000;45.182;5.736;2023-07-31T12:18:34;99054.94;;;32.51;24.50
66196;BME280;53000;45.182;5.736;2023-07-31T12:21:02;99049.81;;;32.44;24.50
66196;BME280;53000;45.182;5.736;2023-07-31T12:23:30;99044.47;;;32.34;24.31
66196;BME280;53000;45.182;5.736;2023-07-31T12:26:07;99036.75;;;32.39;23.99
66196;BME280;53000;45.182;5.736;2023-07-31T12:31:04;99033.09;;;32.39;24.15
66196;BME280;53000;45.182;5.736;2023-07-31T12:33:37;99027.78;;;32.29;24.60
66196;BME280;53000;45.182;5.736;2023-07-31T12:36:07;99033.25;;;32.34;24.48
66196;BME280;53000;45.182;5.736;2023-07-31T12:38:33;99033.25;;;32.34;24.59
66196;BME280;53000;45.182;5.736;2023-07-31T12:40:58;99025.56;;;32.39;25.29
66196;BME280;53000;45.182;5.736;2023-07-31T12:43:24;99014.91;;;32.50;25.44
66196;BME280;53000;45.182;5.736;2023-07-31T12:45:49;99012.53;;;32.66;25.67
66196;BME280;53000;45.182;5.736;2023-07-31T12:48:14;99013.88;;;32.77;25.98
66196;BME280;53000;45.182;5.736;2023-07-31T12:50:40;99005.31;;;32.74;25.46
66196;BME280;53000;45.182;5.736;2023-07-31T12:53:05;98994.59;;;32.76;25.97
66196;BME280;53000;45.182;5.736;2023-07-31T12:55:32;98976.78;;;32.72;25.45
66196;BME280;53000;45.182;5.736;2023-07-31T12:58:00;98989.03;;;32.85;25.36
66196;BME280;53000;45.182;5.736;2023-07-31T13:00:25;98982.91;;;32.83;25.31
66196;BME280;53000;45.182;5.736;2023-07-31T13:02:51;98978.63;;;32.85;25.55
66196;BME280;53000;45.182;5.736;2023-07-31T13:05:16;98971.06;;;32.94;25.69
66196;BME280;53000;45.182;5.736;2023-07-31T13:07:42;98965.03;;;33.10;26.00
66196;BME280;53000;45.182;5.736;2023-07-31T13:10:08;98961.28;;;33.23;26.15